createdAt,value
2023-03-17T00:01:54.565Z,95954.28
2023-03-17T00:04:25.140Z,95958.72
2023-03-17T00:06:55.616Z,95955.84
2023-03-17T00:09:23.794Z,95962.66
2023-03-17T00:11:51.888Z,95970.53
2023-03-17T00:14:20.731Z,95962.66
2023-03-17T00:16:50.854Z,95967.38
2023-03-17T00:19:31.105Z,95974.19
2023-03-17T00:22:01.517Z,95970.78
2023-03-17T00:24:29.953Z,95973.63
2023-03-17T00:26:58.169Z,95965.31
2023-03-17T00:29:26.986Z,95977.84
2023-03-17T00:31:56.404Z,95980.44
2023-03-17T00:34:24.527Z,95972.03
2023-03-17T00:36:53.492Z,95979.59
2023-03-17T00:39:24.350Z,95973.34
2023-03-17T00:41:52.667Z,95981.19
2023-03-17T00:44:20.628Z,95974.09
2023-03-17T00:46:48.769Z,95977.22
2023-03-17T00:49:19.185Z,95980.88
2023-03-17T00:51:47.947Z,95981.94
2023-03-17T00:54:16.912Z,95972.78
2023-03-17T00:56:47.320Z,95972.22
2023-03-17T00:59:22.882Z,95975.31
2023-03-17T01:01:51.250Z,95963.53
2023-03-17T01:04:19.738Z,95956.47
2023-03-17T01:06:48.369Z,95953.84
2023-03-17T01:09:18.623Z,95949.66
2023-03-17T01:11:48.783Z,95950.97
2023-03-17T01:14:17.453Z,95948.91
2023-03-17T01:16:45.806Z,95945.75
2023-03-17T01:19:15.030Z,95947.84
2023-03-17T01:21:43.116Z,95939.47
2023-03-17T01:24:11.163Z,95939.97
2023-03-17T01:26:39.256Z,95935.53
2023-03-17T01:29:09.261Z,95927.47
2023-03-17T01:31:37.491Z,95927.22
2023-03-17T01:34:06.257Z,95926.44
2023-03-17T01:36:34.412Z,95929.81
2023-03-17T01:39:03.457Z,95927.75
2023-03-17T01:41:34.821Z,95929.31
2023-03-17T01:44:03.003Z,95924.34
2023-03-17T01:46:34.243Z,95921.75
2023-03-17T01:49:10.136Z,95918.34
2023-03-17T01:51:44.221Z,95913.91
2023-03-17T01:54:19.327Z,95919.91
2023-03-17T01:56:51.838Z,95914.44
2023-03-17T01:59:23.771Z,95908.16
2023-03-17T02:01:58.602Z,95907.06
2023-03-17T02:04:27.217Z,95900.78
2023-03-17T02:06:58.278Z,95899.72
2023-03-17T02:09:27.805Z,95896.06
2023-03-17T02:11:57.649Z,95895.56
2023-03-17T02:14:25.663Z,95892.41
2023-03-17T02:16:55.462Z,95890.84
2023-03-17T02:19:23.474Z,95897.63
2023-03-17T02:21:55.396Z,95894.25
2023-03-17T02:24:30.049Z,95894.25
2023-03-17T02:27:02.323Z,95891.59
2023-03-17T02:29:33.821Z,95892.09
2023-03-17T02:32:02.353Z,95883.97
2023-03-17T02:34:31.612Z,95881.88
2023-03-17T02:37:01.310Z,95887.59
2023-03-17T02:39:29.250Z,95886.78
2023-03-17T02:41:57.417Z,95879.44
2023-03-17T02:44:25.967Z,95885.41
2023-03-17T02:46:54.127Z,95884.84
2023-03-17T02:49:22.807Z,95890.28
2023-03-17T02:51:50.823Z,95883.25
2023-03-17T02:54:20.373Z,95874.41
2023-03-17T02:56:48.442Z,95871.28
2023-03-17T02:59:16.460Z,95870.97
2023-03-17T03:01:44.563Z,95859.50
2023-03-17T03:04:13.492Z,95868.34
2023-03-17T03:06:42.661Z,95873.81
2023-03-17T03:09:11.888Z,95871.97
2023-03-17T03:11:42.710Z,95874.34
2023-03-17T03:14:11.824Z,95871.72
2023-03-17T03:16:40.361Z,95866.53
2023-03-17T03:19:09.157Z,95852.97
2023-03-17T03:21:37.811Z,95860.75
2023-03-17T03:24:07.268Z,95857.84
2023-03-17T03:26:35.271Z,95860.72
2023-03-17T03:29:04.930Z,95859.63
2023-03-17T03:31:33.127Z,95858.34
2023-03-17T03:34:01.147Z,95858.59
2023-03-17T03:36:29.156Z,95852.59
2023-03-17T03:38:58.046Z,95853.38
2023-03-17T03:41:26.344Z,95859.13
2023-03-17T03:43:54.543Z,95853.94
2023-03-17T03:46:23.993Z,95857.06
2023-03-17T03:48:52.029Z,95853.13
2023-03-17T03:51:20.143Z,95859.91
2023-03-17T03:53:48.378Z,95858.84
2023-03-17T03:56:16.707Z,95863.78
2023-03-17T03:58:44.705Z,95859.06
2023-03-17T04:01:13.388Z,95854.88
2023-03-17T04:03:42.801Z,95863.75
2023-03-17T04:06:11.467Z,95860.63
2023-03-17T04:08:39.509Z,95862.22
2023-03-17T04:11:07.642Z,95862.22
2023-03-17T04:13:36.078Z,95851.50
2023-03-17T04:16:04.049Z,95852.25
2023-03-17T04:18:32.202Z,95842.34
2023-03-17T04:21:01.689Z,95853.81
2023-03-17T04:23:31.527Z,95852.72
2023-03-17T04:25:59.679Z,95858.97
2023-03-17T04:28:27.738Z,95853.22
2023-03-17T04:30:56.320Z,95846.69
2023-03-17T04:33:24.420Z,95861.00
2023-03-17T04:35:52.555Z,95857.91
2023-03-17T04:38:22.152Z,95855.34
2023-03-17T04:40:51.854Z,95864.75
2023-03-17T04:43:19.820Z,95848.09
2023-03-17T04:45:47.877Z,95859.81
2023-03-17T04:48:16.004Z,95853.31
2023-03-17T04:50:45.624Z,95859.03
2023-03-17T04:53:13.914Z,95852.28
2023-03-17T04:55:43.237Z,95852.56
2023-03-17T04:58:15.502Z,95855.44
2023-03-17T05:00:49.326Z,95859.06
2023-03-17T05:03:26.613Z,95853.56
2023-03-17T05:05:55.593Z,95856.41
2023-03-17T05:08:23.652Z,95849.63
2023-03-17T05:10:53.315Z,95851.22
2023-03-17T05:13:21.345Z,95853.81
2023-03-17T05:15:50.256Z,95859.00
2023-03-17T05:18:18.870Z,95843.34
2023-03-17T05:20:47.030Z,95847.22
2023-03-17T05:23:15.255Z,95854.00
2023-03-17T05:25:43.236Z,95851.66
2023-03-17T05:28:13.399Z,95849.06
2023-03-17T05:30:41.639Z,95849.59
2023-03-17T05:33:10.229Z,95846.97
2023-03-17T05:35:38.408Z,95854.31
2023-03-17T05:38:06.933Z,95851.16
2023-03-17T05:40:35.549Z,95845.94
2023-03-17T05:43:04.111Z,95849.06
2023-03-17T05:45:34.002Z,95846.44
2023-03-17T05:48:02.171Z,95842.81
2023-03-17T05:50:31.020Z,95844.88
2023-03-17T05:52:59.146Z,95839.66
2023-03-17T05:55:27.336Z,95840.16
2023-03-17T05:57:55.339Z,95845.38
2023-03-17T06:00:23.729Z,95834.16
2023-03-17T06:02:53.166Z,95839.66
2023-03-17T06:05:21.410Z,95838.63
2023-03-17T06:07:54.906Z,95845.94
2023-03-17T06:10:24.843Z,95845.47
2023-03-17T06:12:53.065Z,95845.22
2023-03-17T06:15:21.400Z,95842.38
2023-03-17T06:17:49.542Z,95833.78
2023-03-17T06:20:19.502Z,95836.94
2023-03-17T06:23:02.656Z,95841.13
2023-03-17T06:25:32.131Z,95838.28
2023-03-17T06:28:02.692Z,95837.28
2023-03-17T06:30:31.430Z,95838.88
2023-03-17T06:33:00.304Z,95837.81
2023-03-17T06:35:30.403Z,95841.72
2023-03-17T06:37:58.773Z,95841.72
2023-03-17T06:40:26.783Z,95847.75
2023-03-17T06:42:54.860Z,95853.28
2023-03-17T06:45:22.905Z,95858.56
2023-03-17T06:47:50.964Z,95846.84
2023-03-17T06:50:19.682Z,95841.63
2023-03-17T06:52:49.101Z,95844.28
2023-03-17T06:55:17.645Z,95854.50
2023-03-17T06:57:45.883Z,95846.44
2023-03-17T07:00:16.005Z,95847.53
2023-03-17T07:02:44.289Z,95846.00
2023-03-17T07:05:14.019Z,95842.88
2023-03-17T07:07:42.738Z,95836.13
2023-03-17T07:10:15.942Z,95836.41
2023-03-17T07:12:44.246Z,95842.16
2023-03-17T07:15:13.743Z,95841.38
2023-03-17T07:17:42.207Z,95837.47
2023-03-17T07:20:11.730Z,95843.50
2023-03-17T07:22:39.858Z,95841.72
2023-03-17T07:25:09.816Z,95840.97
2023-03-17T07:27:39.497Z,95838.34
2023-03-17T07:30:09.605Z,95844.09
2023-03-17T07:32:37.974Z,95835.72
2023-03-17T07:35:07.416Z,95841.19
2023-03-17T07:37:35.656Z,95825.78
2023-03-17T07:40:03.738Z,95832.28
2023-03-17T07:42:31.806Z,95828.03
2023-03-17T07:45:01.250Z,95830.34
2023-03-17T07:47:29.309Z,95816.66
2023-03-17T07:49:57.366Z,95821.81
2023-03-17T07:52:25.364Z,95814.41
2023-03-17T07:54:53.996Z,95819.72
2023-03-17T07:57:22.333Z,95818.63
2023-03-17T07:59:50.844Z,95819.78
2023-03-17T08:02:22.283Z,95819.41
2023-03-17T08:04:51.129Z,95815.78
2023-03-17T08:07:19.563Z,95812.75
2023-03-17T08:09:47.882Z,95808.34
2023-03-17T08:12:16.536Z,95803.25
2023-03-17T08:14:44.634Z,95801.66
2023-03-17T08:17:13.630Z,95797.69
2023-03-17T08:19:43.197Z,95800.28
2023-03-17T08:22:12.544Z,95793.94
2023-03-17T08:24:43.078Z,95785.50
2023-03-17T08:27:11.266Z,95789.72
2023-03-17T08:29:39.731Z,95784.66
2023-03-17T08:32:08.980Z,95787.31
2023-03-17T08:34:37.112Z,95784.16
2023-03-17T08:37:10.045Z,95780.84
2023-03-17T08:39:39.514Z,95791.63
2023-03-17T08:42:08.381Z,95777.75
2023-03-17T08:44:36.439Z,95785.78
2023-03-17T08:47:04.821Z,95775.69
2023-03-17T08:49:35.098Z,95776.53
2023-03-17T08:52:03.582Z,95771.56
2023-03-17T08:54:33.069Z,95767.00
2023-03-17T08:57:01.865Z,95775.03
2023-03-17T08:59:30.217Z,95767.09
2023-03-17T09:01:58.308Z,95756.59
2023-03-17T09:04:26.695Z,95759.97
2023-03-17T09:07:03.419Z,95750.28
2023-03-17T09:09:34.691Z,95746.91
2023-03-17T09:12:03.207Z,95747.59
2023-03-17T09:14:42.635Z,95738.41
2023-03-17T09:17:12.015Z,95728.34
2023-03-17T09:19:40.535Z,95727.38
2023-03-17T09:22:09.235Z,95716.44
2023-03-17T09:24:38.645Z,95710.53
2023-03-17T09:27:07.206Z,95708.75
2023-03-17T09:29:35.743Z,95709.56
2023-03-17T09:32:03.862Z,95710.72
2023-03-17T09:34:31.998Z,95714.81
2023-03-17T09:37:00.841Z,95713.88
2023-03-17T09:39:28.963Z,95709.59
2023-03-17T09:42:13.281Z,95693.06
2023-03-17T09:44:56.988Z,95683.72
2023-03-17T09:48:04.791Z,95672.56
2023-03-17T09:50:40.324Z,95672.34
2023-03-17T09:53:18.185Z,95668.72
2023-03-17T09:55:49.394Z,95666.66
2023-03-17T09:58:26.158Z,95654.00
2023-03-17T10:00:54.189Z,95652.69
2023-03-17T10:03:22.395Z,95653.47
2023-03-17T10:05:50.530Z,95653.41
2023-03-17T10:08:31.181Z,95640.69
2023-03-17T10:11:11.049Z,95635.63
2023-03-17T10:13:54.972Z,95627.66
2023-03-17T10:16:38.259Z,95634.53
2023-03-17T10:19:17.578Z,95621.44
2023-03-17T10:21:53.691Z,95616.16
2023-03-17T10:24:23.058Z,95609.38
2023-03-17T10:26:53.388Z,95604.50
2023-03-17T10:29:24.550Z,95596.72
2023-03-17T10:31:55.218Z,95595.19
2023-03-17T10:34:27.703Z,95587.69
2023-03-17T10:36:57.617Z,95583.22
2023-03-17T10:39:25.808Z,95576.69
2023-03-17T10:41:57.602Z,95566.97
2023-03-17T10:44:46.178Z,95566.44
2023-03-17T10:47:24.271Z,95558.34
2023-03-17T10:49:52.651Z,95559.91
2023-03-17T10:52:23.995Z,95564.41
2023-03-17T10:54:52.738Z,95563.06
2023-03-17T10:57:21.520Z,95552.00
2023-03-17T10:59:53.853Z,95545.56
2023-03-17T11:02:27.052Z,95542.25
2023-03-17T11:04:59.822Z,95543.03
2023-03-17T11:07:32.466Z,95538.28
2023-03-17T11:10:04.388Z,95537.28
2023-03-17T11:12:37.262Z,95533.03
2023-03-17T11:15:11.574Z,95524.31
2023-03-17T11:17:44.184Z,95523.47
2023-03-17T11:20:37.272Z,95518.81
2023-03-17T11:23:12.126Z,95518.09
2023-03-17T11:25:44.110Z,95518.16
2023-03-17T11:28:20.390Z,95504.38
2023-03-17T11:31:06.589Z,95506.34
2023-03-17T11:33:39.491Z,95502.47
2023-03-17T11:36:20.069Z,95509.53
2023-03-17T11:38:58.530Z,95508.63
2023-03-17T11:41:46.556Z,95507.66
2023-03-17T11:44:42.196Z,95503.88
2023-03-17T11:47:23.055Z,95505.22
2023-03-17T11:50:02.312Z,95506.56
2023-03-17T11:52:37.255Z,95517.75
2023-03-17T11:55:14.569Z,95508.75
2023-03-17T11:57:48.330Z,95510.50
2023-03-17T12:00:25.191Z,95508.63
2023-03-17T12:03:00.338Z,95502.91
2023-03-17T12:05:30.096Z,95505.78
2023-03-17T12:08:00.790Z,95502.59
2023-03-17T12:10:34.876Z,95492.53
2023-03-17T12:13:08.194Z,95486.75
2023-03-17T12:15:41.783Z,95494.59
2023-03-17T12:18:17.424Z,95493.41
2023-03-17T12:20:52.828Z,95498.03
2023-03-17T12:23:30.520Z,95487.47
2023-03-17T12:26:03.910Z,95487.44
2023-03-17T12:28:37.717Z,95480.44
2023-03-17T12:31:09.062Z,95478.31
2023-03-17T12:33:45.329Z,95471.72
2023-03-17T12:36:17.007Z,95467.09
2023-03-17T12:38:49.995Z,95460.75
2023-03-17T12:41:44.175Z,95458.78
2023-03-17T12:44:27.625Z,95467.69
2023-03-17T12:47:12.959Z,95462.47
2023-03-17T12:50:05.891Z,95466.38
2023-03-17T12:52:48.532Z,95462.47
2023-03-17T12:55:18.799Z,95462.34
2023-03-17T12:57:48.972Z,95460.81
2023-03-17T13:00:24.671Z,95458.84
2023-03-17T13:03:08.946Z,95461.44
2023-03-17T13:05:38.607Z,95457.25
2023-03-17T13:08:11.088Z,95452.19
2023-03-17T13:10:42.747Z,95462.66
2023-03-17T13:13:23.327Z,95458.72
2023-03-17T13:15:59.651Z,95455.22
2023-03-17T13:18:48.151Z,95448.47
2023-03-17T13:21:19.299Z,95463.22
2023-03-17T13:23:49.439Z,95460.47
2023-03-17T13:26:21.386Z,95449.69
2023-03-17T13:28:51.197Z,95448.34
2023-03-17T13:31:37.211Z,95437.34
2023-03-17T13:34:15.307Z,95437.75
2023-03-17T13:36:53.988Z,95439.28
2023-03-17T13:40:01.313Z,95431.38
2023-03-17T13:42:44.648Z,95439.91
2023-03-17T13:45:25.043Z,95431.72
2023-03-17T13:47:55.293Z,95436.47
2023-03-17T13:50:26.435Z,95435.63
2023-03-17T13:52:58.773Z,95431.78
2023-03-17T13:55:38.110Z,95427.06
2023-03-17T13:58:27.658Z,95435.28
2023-03-17T14:01:03.886Z,95435.50
2023-03-17T14:03:38.941Z,95431.88
2023-03-17T14:06:09.890Z,95425.69
2023-03-17T14:08:44.470Z,95421.06
2023-03-17T14:11:22.683Z,95420.06
2023-03-17T14:14:01.057Z,95427.41
2023-03-17T14:16:33.275Z,95429.44
2023-03-17T14:19:12.414Z,95418.91
2023-03-17T14:21:40.897Z,95424.50
2023-03-17T14:24:21.280Z,95420.13
2023-03-17T14:26:50.432Z,95411.16
2023-03-17T14:29:21.390Z,95410.88
2023-03-17T14:31:50.888Z,95422.03
2023-03-17T14:34:22.806Z,95420.31
2023-03-17T14:36:52.767Z,95410.72
2023-03-17T14:39:25.909Z,95413.97
2023-03-17T14:42:03.462Z,95404.44
2023-03-17T14:44:38.274Z,95414.91
2023-03-17T14:47:13.902Z,95411.34
2023-03-17T14:49:41.957Z,95409.63
2023-03-17T14:52:22.551Z,95409.19
2023-03-17T14:54:54.723Z,95408.00
2023-03-17T14:57:24.775Z,95399.16
2023-03-17T15:00:00.950Z,95393.06
2023-03-17T15:02:34.326Z,95396.41
2023-03-17T15:05:06.781Z,95389.53
2023-03-17T15:07:39.784Z,95392.44
2023-03-17T15:10:17.107Z,95395.56
2023-03-17T15:12:47.380Z,95391.72
2023-03-17T15:15:24.051Z,95384.41
2023-03-17T15:17:53.535Z,95386.56
2023-03-17T15:20:21.946Z,95393.41
2023-03-17T15:22:57.099Z,95392.66
2023-03-17T15:25:29.290Z,95386.75
2023-03-17T15:27:57.472Z,95386.84
2023-03-17T15:30:29.443Z,95384.50
2023-03-17T15:33:02.448Z,95389.94
2023-03-17T15:35:30.856Z,95386.28
2023-03-17T15:37:58.972Z,95392.44
2023-03-17T15:40:28.544Z,95384.03
2023-03-17T15:42:57.315Z,95383.63
2023-03-17T15:45:25.535Z,95386.03
2023-03-17T15:47:53.660Z,95389.97
2023-03-17T15:50:25.624Z,95387.31
2023-03-17T15:52:56.053Z,95391.78
2023-03-17T15:55:25.317Z,95386.88
2023-03-17T15:57:56.561Z,95391.78
2023-03-17T16:00:26.653Z,95395.78
2023-03-17T16:02:56.343Z,95397.94
2023-03-17T16:05:26.304Z,95396.94
2023-03-17T16:07:54.915Z,95392.53
2023-03-17T16:10:25.623Z,95390.13
2023-03-17T16:12:55.577Z,95395.25
2023-03-17T16:15:26.202Z,95398.41
2023-03-17T16:17:56.737Z,95396.50
2023-03-17T16:20:27.282Z,95397.09
2023-03-17T16:22:58.682Z,95393.25
2023-03-17T16:25:28.411Z,95402.53
2023-03-17T16:27:59.816Z,95401.97
2023-03-17T16:30:31.494Z,95405.41
2023-03-17T16:33:03.378Z,95406.31
2023-03-17T16:35:31.564Z,95410.84
2023-03-17T16:37:59.624Z,95409.63
2023-03-17T16:40:30.586Z,95415.81
2023-03-17T16:43:00.226Z,95426.13
2023-03-17T16:45:32.758Z,95418.59
2023-03-17T16:48:02.312Z,95417.16
2023-03-17T16:50:33.304Z,95415.69
2023-03-17T16:53:01.601Z,95420.94
2023-03-17T16:55:30.451Z,95424.66
2023-03-17T16:58:04.244Z,95435.34
2023-03-17T17:00:33.343Z,95426.19
2023-03-17T17:03:01.980Z,95431.34
2023-03-17T17:05:31.278Z,95435.31
2023-03-17T17:07:59.977Z,95443.22
2023-03-17T17:10:30.467Z,95443.03
2023-03-17T17:13:00.352Z,95447.94
2023-03-17T17:15:29.066Z,95449.25
2023-03-17T17:18:00.751Z,95457.38
2023-03-17T17:20:30.977Z,95455.53
2023-03-17T17:22:59.612Z,95456.81
2023-03-17T17:25:28.279Z,95456.34
2023-03-17T17:27:56.969Z,95455.91
2023-03-17T17:30:28.915Z,95457.47
2023-03-17T17:32:59.180Z,95462.47
2023-03-17T17:35:30.717Z,95461.09
2023-03-17T17:38:00.723Z,95460.19
2023-03-17T17:40:29.438Z,95461.28
2023-03-17T17:42:57.928Z,95458.19
2023-03-17T17:45:27.423Z,95461.16
2023-03-17T17:47:55.488Z,95461.50
2023-03-17T17:50:26.743Z,95464.78
2023-03-17T17:52:55.081Z,95483.47
2023-03-17T17:55:23.131Z,95483.66
2023-03-17T17:57:52.590Z,95495.31
2023-03-17T18:00:21.758Z,95503.44
2023-03-17T18:02:51.250Z,95500.97
2023-03-17T18:05:19.251Z,95507.19
2023-03-17T18:07:47.230Z,95511.88
2023-03-17T18:10:18.699Z,95513.13
2023-03-17T18:12:46.775Z,95507.41
2023-03-17T18:15:14.776Z,95502.59
2023-03-17T18:17:43.230Z,95517.53
2023-03-17T18:20:16.370Z,95504.31
2023-03-17T18:22:44.565Z,95509.00
2023-03-17T18:25:14.333Z,95511.91
2023-03-17T18:27:43.191Z,95514.88
2023-03-17T18:30:14.308Z,95515.50
2023-03-17T18:32:44.354Z,95520.16
2023-03-17T18:35:18.590Z,95523.75
2023-03-17T18:37:46.858Z,95530.63
2023-03-17T18:40:18.752Z,95523.63
2023-03-17T18:42:47.481Z,95535.59
2023-03-17T18:45:16.205Z,95537.75
2023-03-17T18:47:44.209Z,95540.56
2023-03-17T18:50:16.031Z,95541.81
2023-03-17T18:52:45.158Z,95541.94
2023-03-17T18:55:15.508Z,95549.72
2023-03-17T18:57:45.019Z,95545.97
2023-03-17T19:00:16.419Z,95541.47
2023-03-17T19:02:45.042Z,95547.97
2023-03-17T19:05:14.512Z,95547.50
2023-03-17T19:07:42.587Z,95545.31
2023-03-17T19:10:12.318Z,95552.59
2023-03-17T19:12:40.635Z,95551.94
2023-03-17T19:15:10.742Z,95552.81
2023-03-17T19:17:39.067Z,95549.38
2023-03-17T19:20:10.110Z,95548.44
2023-03-17T19:22:40.295Z,95551.69
2023-03-17T19:25:09.922Z,95558.97
2023-03-17T19:27:38.064Z,95561.63
2023-03-17T19:30:07.471Z,95562.56
2023-03-17T19:32:35.541Z,95564.72
2023-03-17T19:35:03.514Z,95563.31
2023-03-17T19:37:32.599Z,95564.66
2023-03-17T19:40:02.062Z,95573.75
2023-03-17T19:42:30.078Z,95584.91
2023-03-17T19:44:58.085Z,95579.63
2023-03-17T19:47:26.380Z,95592.34
2023-03-17T19:49:54.402Z,95592.00
2023-03-17T19:52:22.672Z,95591.03
2023-03-17T19:54:50.674Z,95596.13
2023-03-17T19:57:21.052Z,95596.13
2023-03-17T19:59:49.125Z,95602.66
2023-03-17T20:02:17.983Z,95603.13
2023-03-17T20:04:46.055Z,95610.72
2023-03-17T20:07:14.560Z,95613.66
2023-03-17T20:09:44.664Z,95625.63
2023-03-17T20:12:12.992Z,95621.22
2023-03-17T20:14:42.524Z,95616.78
2023-03-17T20:17:10.641Z,95619.16
2023-03-17T20:19:39.514Z,95620.31
2023-03-17T20:22:09.129Z,95630.38
2023-03-17T20:24:38.382Z,95637.50
2023-03-17T20:27:08.550Z,95630.66
2023-03-17T20:29:36.630Z,95629.09
2023-03-17T20:32:07.185Z,95633.97
2023-03-17T20:34:35.923Z,95630.25
2023-03-17T20:37:04.237Z,95626.59
2023-03-17T20:39:32.697Z,95646.06
2023-03-17T20:42:01.748Z,95655.13
2023-03-17T20:44:29.983Z,95659.53
2023-03-17T20:46:58.133Z,95657.41
2023-03-17T20:49:27.816Z,95656.34
2023-03-17T20:51:56.247Z,95639.09
2023-03-17T20:54:24.469Z,95656.34
2023-03-17T20:56:55.991Z,95657.84
2023-03-17T20:59:24.802Z,95662.13
2023-03-17T21:01:52.869Z,95668.44
2023-03-17T21:04:21.367Z,95663.47
2023-03-17T21:06:50.795Z,95667.94
2023-03-17T21:09:18.957Z,95668.16
2023-03-17T21:11:49.204Z,95669.91
2023-03-17T21:14:17.359Z,95674.19
2023-03-17T21:16:47.301Z,95684.22
2023-03-17T21:19:16.140Z,95691.31
2023-03-17T21:21:44.644Z,95685.50
2023-03-17T21:24:41.552Z,95687.53
2023-03-17T21:27:12.094Z,95680.44
2023-03-17T21:29:41.082Z,95684.31
2023-03-17T21:32:09.674Z,95681.97
2023-03-17T21:34:38.681Z,95685.69
2023-03-17T21:37:07.016Z,95685.19
2023-03-17T21:39:36.795Z,95684.22
2023-03-17T21:42:05.444Z,95686.34
2023-03-17T21:44:33.592Z,95683.53
2023-03-17T21:47:02.697Z,95680.00
2023-03-17T21:49:30.862Z,95691.69
2023-03-17T21:51:58.945Z,95695.66
2023-03-17T21:54:26.954Z,95689.72
2023-03-17T21:56:56.464Z,95686.88
2023-03-17T21:59:25.044Z,95696.13
2023-03-17T22:01:53.492Z,95681.72
2023-03-17T22:04:21.582Z,95690.25
2023-03-17T22:06:49.685Z,95707.19
2023-03-17T22:09:19.286Z,95695.69
2023-03-17T22:11:47.514Z,95688.63
2023-03-17T22:14:20.499Z,95699.50
2023-03-17T22:16:48.755Z,95694.22
2023-03-17T22:19:20.627Z,95696.50
2023-03-17T22:21:49.156Z,95691.47
2023-03-17T22:24:17.443Z,95687.47
2023-03-17T22:26:45.536Z,95692.94
2023-03-17T22:29:13.712Z,95704.81
2023-03-17T22:31:43.259Z,95707.28
2023-03-17T22:34:11.395Z,95709.91
2023-03-17T22:36:39.587Z,95711.75
2023-03-17T22:39:08.880Z,95710.19
2023-03-17T22:41:37.863Z,95702.97
2023-03-17T22:44:08.297Z,95710.34
2023-03-17T22:46:36.585Z,95716.09
2023-03-17T22:49:06.777Z,95721.56
2023-03-17T22:51:36.062Z,95727.06
2023-03-17T22:54:04.614Z,95722.88
2023-03-17T22:56:32.892Z,95735.44
2023-03-17T22:59:01.122Z,95735.91
2023-03-17T23:01:29.395Z,95732.47
2023-03-17T23:03:57.590Z,95743.66
2023-03-17T23:06:27.017Z,95748.34
2023-03-17T23:08:55.104Z,95747.81
2023-03-17T23:11:25.572Z,95748.84
2023-03-17T23:13:54.324Z,95752.03
2023-03-17T23:16:23.261Z,95751.53
2023-03-17T23:18:51.516Z,95751.59
2023-03-17T23:21:25.037Z,95755.97
2023-03-17T23:23:54.644Z,95753.13
2023-03-17T23:26:22.700Z,95753.91
2023-03-17T23:28:50.913Z,95761.22
2023-03-17T23:31:19.593Z,95764.41
2023-03-17T23:33:47.979Z,95753.91
2023-03-17T23:36:17.136Z,95759.16
2023-03-17T23:38:46.090Z,95751.56
2023-03-17T23:41:15.558Z,95761.78
2023-03-17T23:43:44.130Z,95762.28
2023-03-17T23:46:13.130Z,95758.59
2023-03-17T23:48:42.956Z,95762.78
2023-03-17T23:51:12.587Z,95769.31
2023-03-17T23:53:41.814Z,95766.69
2023-03-17T23:56:11.538Z,95762.22
2023-03-17T23:58:42.502Z,95769.03
